Time;durP1;ratioP1;P1;durP2;ratioP2;P2;SDS_P1;SDS_P2;PMS_P1;PMS_P2;Temp;Humidity;BMP_temperature;BMP_pressure;BME280_temperature;BME280_humidity;BME280_pressure;Samples;Min_cycle;Max_cycle;Signal;HPM_P1;HPM_P2
2023/01/31 00:01:15;;;;;;;;;21.67;17.67;;;;;7.79;100.00;102163.22;5046601;28;45374;-85
2023/01/31 00:03:42;;;;;;;;;20.00;19.00;;;;;7.70;100.00;102176.03;5027070;28;48439;-84
2023/01/31 00:06:28;;;;;;;;;16.67;16.33;;;;;7.70;100.00;102183.97;5026215;28;45378;-84
2023/01/31 00:08:54;;;;;;;;;15.00;13.33;;;;;7.66;100.00;102179.38;5028286;28;45507;-83
2023/01/31 00:11:23;;;;;;;;;19.67;17.67;;;;;7.71;100.00;102175.19;5046700;28;45445;-84
2023/01/31 00:13:48;;;;;;;;;19.67;18.00;;;;;7.63;100.00;102184.50;5027335;28;46902;-85
2023/01/31 00:16:15;;;;;;;;;16.00;14.00;;;;;7.64;100.00;102169.53;5044114;28;45427;-85
2023/01/31 00:18:43;;;;;;;;;12.33;11.67;;;;;7.50;100.00;102152.97;5027699;28;45451;-84
2023/01/31 00:21:11;;;;;;;;;17.67;16.67;;;;;7.61;100.00;102157.03;5046164;28;44725;-85
2023/01/31 00:23:38;;;;;;;;;24.67;19.67;;;;;7.57;100.00;102161.28;5026776;28;47306;-84
2023/01/31 00:26:14;;;;;;;;;17.00;15.00;;;;;7.68;100.00;102166.22;5028596;28;45344;-85
2023/01/31 00:28:41;;;;;;;;;14.67;14.67;;;;;7.58;100.00;102165.75;5045820;28;45906;-85
2023/01/31 00:31:07;;;;;;;;;17.00;16.33;;;;;7.56;100.00;102166.50;5026295;28;45347;-84
2023/01/31 00:33:34;;;;;;;;;19.67;18.67;;;;;7.56;100.00;102169.16;5026772;28;47258;-84
2023/01/31 00:36:05;;;;;;;;;18.00;16.33;;;;;7.56;100.00;102163.84;5026406;28;45413;-84
2023/01/31 00:38:31;;;;;;;;;19.33;19.33;;;;;7.48;100.00;102165.22;5028420;28;45556;-84
2023/01/31 00:40:57;;;;;;;;;16.00;16.00;;;;;7.50;100.00;102171.50;5027522;28;45501;-85
2023/01/31 00:43:22;;;;;;;;;24.67;23.00;;;;;7.52;100.00;102176.03;5044733;28;45817;-85
2023/01/31 00:45:47;;;;;;;;;22.67;20.67;;;;;7.50;100.00;102172.41;5025829;28;45495;-83
2023/01/31 00:48:13;;;;;;;;;21.67;19.33;;;;;7.47;100.00;102166.03;5044284;28;45540;-83
2023/01/31 00:50:38;;;;;;;;;16.00;16.00;;;;;7.48;100.00;102165.22;5026717;28;44877;-84
2023/01/31 00:53:04;;;;;;;;;24.00;19.33;;;;;7.46;100.00;102175.72;5043644;28;46207;-84
2023/01/31 00:55:29;;;;;;;;;17.00;16.33;;;;;7.45;100.00;102170.34;5027884;28;45402;-85
2023/01/31 00:57:54;;;;;;;;;14.67;14.33;;;;;7.37;100.00;102164.66;5028764;28;45399;-83
2023/01/31 01:00:20;;;;;;;;;14.33;11.67;;;;;7.35;100.00;102159.31;5027710;28;45880;-83
2023/01/31 01:02:45;;;;;;;;;13.00;13.00;;;;;7.33;100.00;102155.69;5044444;28;45760;-84
2023/01/31 01:05:11;;;;;;;;;16.33;16.00;;;;;7.34;100.00;102157.50;5025543;28;45448;-84
2023/01/31 01:07:38;;;;;;;;;13.33;11.67;;;;;7.32;100.00;102142.38;5025924;28;45434;-84
2023/01/31 01:10:05;;;;;;;;;15.67;14.00;;;;;7.27;100.00;102128.00;5044696;28;45347;-85
2023/01/31 01:12:30;;;;;;;;;16.67;15.00;;;;;7.31;100.00;102136.19;5047292;28;45440;-85
2023/01/31 01:14:55;;;;;;;;;12.00;10.33;;;;;7.33;100.00;102129.22;5029481;28;45946;-83
2023/01/31 01:17:21;;;;;;;;;13.67;11.67;;;;;7.36;100.00;102133.75;5048896;28;45299;-83
2023/01/31 01:19:46;;;;;;;;;12.67;12.33;;;;;7.39;100.00;102145.41;5028655;28;45391;-84
2023/01/31 01:22:15;;;;;;;;;17.00;13.00;;;;;7.43;100.00;102157.03;5011346;28;47187;-84
2023/01/31 01:24:44;;;;;;;;;11.00;11.00;;;;;7.45;100.00;102151.81;5029842;28;45448;-84
2023/01/31 01:27:10;;;;;;;;;8.00;8.00;;;;;7.45;100.00;102155.38;5010058;28;44868;-84
2023/01/31 01:29:38;;;;;;;;;17.67;15.00;;;;;7.54;100.00;102153.19;5008880;28;45420;-84
2023/01/31 01:32:04;;;;;;;;;19.33;11.67;;;;;7.47;100.00;102145.75;5007384;28;46975;-84
2023/01/31 01:34:30;;;;;;;;;12.00;10.33;;;;;7.48;100.00;102146.69;5028572;28;45367;-84
2023/01/31 01:36:56;;;;;;;;;21.67;17.00;;;;;7.43;100.00;102142.91;5009179;28;45445;-83
2023/01/31 01:39:22;;;;;;;;;16.33;15.67;;;;;7.46;100.00;102149.25;5009259;28;45444;-84
2023/01/31 01:41:50;;;;;;;;;16.33;14.00;;;;;7.47;100.00;102147.50;5006885;28;47019;-84
2023/01/31 01:44:54;;;;;;;;;18.33;16.00;;;;;7.51;100.00;102144.19;5025412;28;45375;-83
2023/01/31 01:47:22;;;;;;;;;16.00;16.00;;;;;7.36;100.00;102141.69;5026383;28;45305;-84
2023/01/31 01:50:03;;;;;;;;;21.67;17.33;;;;;7.37;100.00;102141.78;5009242;28;45438;-84
2023/01/31 01:52:33;;;;;;;;;18.00;16.33;;;;;7.38;100.00;102143.56;5007467;28;47542;-83
2023/01/31 01:55:20;;;;;;;;;16.33;15.67;;;;;7.40;100.00;102141.91;5005978;28;44913;-84
2023/01/31 01:57:49;;;;;;;;;15.33;13.00;;;;;7.28;100.00;102136.00;5007457;28;45276;-84
2023/01/31 02:00:24;;;;;;;;;18.67;15.67;;;;;7.32;100.00;102139.72;5006496;28;45425;-84
2023/01/31 02:02:57;;;;;;;;;20.33;17.00;;;;;7.27;100.00;102138.56;5005860;28;46972;-84
2023/01/31 02:05:35;;;;;;;;;21.67;17.67;;;;;7.30;100.00;102144.03;5006406;28;45409;-84
2023/01/31 02:08:02;;;;;;;;;15.00;13.33;;;;;7.13;100.00;102129.94;5024353;28;45394;-85
2023/01/31 02:10:33;;;;;;;;;21.33;17.67;;;;;7.23;100.00;102126.97;5024895;28;45394;-84
2023/01/31 02:12:58;;;;;;;;;16.67;16.00;;;;;7.07;100.00;102134.94;5007984;28;48602;-84
2023/01/31 02:15:24;;;;;;;;;18.67;16.33;;;;;6.99;100.00;102130.16;5008248;28;45410;-85
2023/01/31 02:17:51;;;;;;;;;17.00;14.33;;;;;6.95;100.00;102135.25;5025239;28;45484;-84
2023/01/31 02:20:39;;;;;;;;;20.33;17.33;;;;;7.02;100.00;102134.69;5007222;28;45407;-84
2023/01/31 02:23:29;;;;;;;;;22.00;17.67;;;;;6.97;100.00;102130.94;5025924;28;46697;-85
2023/01/31 02:26:32;;;;;;;;;22.33;18.67;;;;;7.00;100.00;102139.00;5009633;28;45292;-85
2023/01/31 02:29:12;;;;;;;;;19.00;17.33;;;;;6.97;100.00;102144.16;5007882;28;45686;-84
2023/01/31 02:31:59;;;;;;;;;20.00;15.00;;;;;6.92;100.00;102143.91;5024198;28;45537;-85
2023/01/31 02:34:52;;;;;;;;;16.67;15.33;;;;;6.93;100.00;102139.53;5026159;28;46145;-85
2023/01/31 02:37:44;;;;;;;;;20.00;16.00;;;;;6.89;100.00;102140.19;5007010;28;45514;-84
2023/01/31 02:40:31;;;;;;;;;14.33;12.00;;;;;6.83;100.00;102138.16;5009120;28;45444;-84
2023/01/31 02:43:12;;;;;;;;;20.67;18.00;;;;;6.84;100.00;102136.41;5028336;28;45325;-84
2023/01/31 02:45:44;;;;;;;;;16.67;16.00;;;;;6.73;100.00;102147.34;5026729;28;45451;-84
2023/01/31 02:48:21;;;;;;;;;19.67;16.67;;;;;6.85;100.00;102139.13;5008517;28;45459;-84
2023/01/31 02:51:08;;;;;;;;;15.33;15.33;;;;;6.84;100.00;102142.59;5027084;28;45501;-85
2023/01/31 02:53:56;;;;;;;;;16.33;12.33;;;;;6.80;100.00;102130.94;5000570;28;45384;-85
2023/01/31 02:56:32;;;;;;;;;16.00;16.00;;;;;6.84;100.00;102146.97;5007010;28;46255;-84
2023/01/31 02:59:18;;;;;;;;;14.00;14.00;;;;;6.80;100.00;102143.28;5008167;28;45701;-85
2023/01/31 03:01:49;;;;;;;;;20.33;15.00;;;;;6.78;100.00;102147.56;5006157;28;45451;-85
2023/01/31 03:04:15;;;;;;;;;16.67;12.67;;;;;6.67;100.00;102135.53;5023004;28;44733;-84
2023/01/31 03:06:53;;;;;;;;;15.33;14.67;;;;;6.76;100.00;102134.25;5005647;28;46928;-85
2023/01/31 03:09:37;;;;;;;;;16.33;15.00;;;;;6.82;100.00;102138.97;5007004;28;45424;-85
2023/01/31 03:12:12;;;;;;;;;19.00;16.33;;;;;6.84;100.00;102147.88;5008314;28;45431;-85
2023/01/31 03:14:47;;;;;;;;;15.00;12.33;;;;;6.77;100.00;102141.38;5027656;28;45468;-85
2023/01/31 03:17:44;;;;;;;;;14.67;13.33;;;;;6.75;100.00;102134.22;5009333;28;48102;-84
2023/01/31 03:20:14;;;;;;;;;19.00;16.33;;;;;6.72;100.00;102149.91;5009704;28;45351;-85
2023/01/31 03:22:45;;;;;;;;;14.00;14.00;;;;;6.80;100.00;102148.56;5025403;28;45292;-84
2023/01/31 03:25:15;;;;;;;;;16.00;15.00;;;;;6.76;100.00;102143.94;5026378;28;45785;-84
2023/01/31 03:28:11;;;;;;;;;13.33;13.33;;;;;6.87;100.00;102156.00;5006830;28;46754;-84
2023/01/31 03:30:58;;;;;;;;;17.67;13.33;;;;;6.83;100.00;102143.44;5026525;28;45865;-84
2023/01/31 03:33:29;;;;;;;;;16.33;15.67;;;;;6.77;100.00;102145.78;5008920;28;44902;-84
2023/01/31 03:36:15;;;;;;;;;15.00;15.00;;;;;6.81;100.00;102153.03;5006489;28;45371;-84
2023/01/31 03:39:07;;;;;;;;;13.33;13.33;;;;;6.76;100.00;102154.50;5007578;28;47503;-85
2023/01/31 03:41:50;;;;;;;;;15.00;11.67;;;;;6.71;100.00;102150.75;4924123;28;45204;-84
2023/01/31 03:44:38;;;;;;;;;16.67;15.67;;;;;6.70;100.00;102159.47;4923500;28;45761;-83
2023/01/31 03:47:16;;;;;;;;;17.33;15.67;;;;;6.65;100.00;102153.06;4922931;28;45437;-84
2023/01/31 03:53:21;;;;;;;;;21.00;17.00;;;;;6.55;100.00;102147.28;4923932;28;45595;-84
2023/01/31 03:56:00;;;;;;;;;19.00;19.00;;;;;6.62;100.00;102143.22;4909285;28;45546;-84
2023/01/31 03:58:30;;;;;;;;;16.00;16.00;;;;;6.61;100.00;102144.94;4908056;28;45560;-85
2023/01/31 04:00:59;;;;;;;;;13.33;12.00;;;;;6.58;100.00;102143.88;4908562;28;47349;-85
2023/01/31 04:03:53;;;;;;;;;18.00;14.33;;;;;6.66;100.00;102152.22;4907238;28;45328;-85
2023/01/31 04:06:19;;;;;;;;;18.67;18.00;;;;;6.50;100.00;102150.50;4905214;28;45506;-85
2023/01/31 04:08:44;;;;;;;;;15.00;15.00;;;;;6.50;100.00;102147.84;4923109;28;45387;-84
2023/01/31 04:11:13;;;;;;;;;20.67;19.00;;;;;6.60;100.00;102163.38;4925109;28;46265;-85
2023/01/31 04:13:38;;;;;;;;;14.67;14.00;;;;;6.47;100.00;102151.25;4926002;28;45781;-84
2023/01/31 04:16:04;;;;;;;;;12.33;12.33;;;;;6.51;100.00;102153.22;4924191;28;45611;-85
2023/01/31 04:18:30;;;;;;;;;15.67;15.67;;;;;6.48;100.00;102150.41;4952599;28;45493;-85
2023/01/31 04:20:55;;;;;;;;;17.33;15.33;;;;;6.41;100.00;102130.69;5008597;28;47219;-84
2023/01/31 04:23:20;;;;;;;;;16.00;15.00;;;;;6.41;100.00;102140.34;5008215;28;45761;-85
2023/01/31 04:25:46;;;;;;;;;20.50;15.50;;;;;6.46;100.00;102146.78;5026120;28;45389;-84
2023/01/31 04:28:11;;;;;;;;;17.00;16.00;;;;;6.36;100.00;102128.63;5008075;28;45276;-84
2023/01/31 04:30:36;;;;;;;;;11.00;11.00;;;;;6.47;100.00;102156.53;5023407;28;46113;-84
2023/01/31 04:33:02;;;;;;;;;16.00;11.67;;;;;6.45;100.00;102152.91;5007747;28;45400;-83
2023/01/31 04:35:28;;;;;;;;;14.33;14.33;;;;;6.51;100.00;102171.72;5007947;28;44969;-83
2023/01/31 04:37:53;;;;;;;;;13.33;12.00;;;;;6.44;100.00;102144.88;5025876;28;45217;-83
2023/01/31 04:43:41;;;;;;;;;18.33;16.33;;;;;6.35;100.00;102151.50;5024686;28;45378;-84
2023/01/31 04:46:06;;;;;;;;;16.00;14.00;;;;;6.34;100.00;102154.03;5008611;28;45479;-83
2023/01/31 04:48:32;;;;;;;;;19.00;15.33;;;;;6.24;100.00;102141.16;5026538;28;45356;-83
2023/01/31 04:50:57;;;;;;;;;17.67;15.67;;;;;6.33;100.00;102146.97;5027228;28;46138;-84
2023/01/31 04:56:45;;;;;;;;;13.33;11.67;;;;;6.39;100.00;102147.28;5026590;28;45502;-84
2023/01/31 04:59:10;;;;;;;;;18.67;16.67;;;;;6.44;100.00;102151.06;5007881;28;45735;-84
2023/01/31 05:01:35;;;;;;;;;14.33;14.33;;;;;6.45;100.00;102141.44;5008582;28;47550;-83
2023/01/31 05:04:01;;;;;;;;;17.33;14.67;;;;;6.37;100.00;102128.69;5027437;28;45344;-84
2023/01/31 05:06:26;;;;;;;;;15.33;12.00;;;;;6.36;100.00;102131.25;5010635;28;45336;-84
2023/01/31 05:08:53;;;;;;;;;15.00;14.00;;;;;6.31;100.00;102131.00;5009668;28;45510;-84
2023/01/31 05:11:19;;;;;;;;;11.33;11.00;;;;;6.27;100.00;102133.41;5008291;28;48378;-84
2023/01/31 05:13:44;;;;;;;;;15.00;10.33;;;;;6.26;100.00;102134.22;5032801;28;45387;-83
2023/01/31 05:16:10;;;;;;;;;20.00;15.00;;;;;6.30;100.00;102126.56;5050065;28;45303;-85
2023/01/31 05:18:37;;;;;;;;;13.33;13.33;;;;;6.28;100.00;102122.00;5029117;28;45582;-85
2023/01/31 05:21:04;;;;;;;;;11.33;9.67;;;;;6.33;100.00;102131.09;5046658;28;45406;-84
2023/01/31 05:23:30;;;;;;;;;14.33;11.33;;;;;6.30;100.00;102130.94;5046311;28;45427;-84
2023/01/31 05:25:55;;;;;;;;;12.67;12.67;;;;;6.40;100.00;102134.16;5046424;28;45473;-84
2023/01/31 05:28:21;;;;;;;;;16.00;14.00;;;;;6.47;100.00;102131.84;5047155;28;45825;-85
2023/01/31 05:30:47;;;;;;;;;14.33;11.33;;;;;6.48;100.00;102121.34;5027654;28;47578;-85
2023/01/31 05:33:14;;;;;;;;;9.33;9.33;;;;;6.59;100.00;102120.19;5044993;28;45367;-83
2023/01/31 05:35:41;;;;;;;;;11.67;11.67;;;;;6.64;100.00;102130.97;5043692;28;45379;-83
2023/01/31 05:38:07;;;;;;;;;14.00;11.00;;;;;6.71;100.00;102129.59;5027020;28;45560;-83
2023/01/31 05:40:33;;;;;;;;;11.33;10.67;;;;;6.76;100.00;102133.38;5028250;28;47590;-84
2023/01/31 05:42:59;;;;;;;;;10.67;10.67;;;;;6.81;100.00;102129.22;5049047;28;45398;-84
2023/01/31 05:45:26;;;;;;;;;12.33;12.33;;;;;6.90;100.00;102148.19;5048365;28;45476;-84
2023/01/31 05:47:51;;;;;;;;;14.67;11.67;;;;;7.03;100.00;102148.81;5028962;28;45565;-83
2023/01/31 05:50:18;;;;;;;;;10.67;8.67;;;;;7.11;100.00;102145.75;5029618;28;47119;-84
2023/01/31 05:52:52;;;;;;;;;13.00;11.00;;;;;7.23;100.00;102129.59;5030077;28;45666;-83
2023/01/31 05:55:18;;;;;;;;;12.67;10.00;;;;;7.21;100.00;102139.16;5029016;28;45687;-83
2023/01/31 05:57:44;;;;;;;;;15.33;12.00;;;;;7.24;100.00;102133.16;5047588;28;45568;-83
2023/01/31 06:00:11;;;;;;;;;10.67;10.33;;;;;7.31;100.00;102129.97;5030714;28;46501;-83
2023/01/31 06:02:36;;;;;;;;;10.00;7.67;;;;;7.29;100.00;102127.25;5031299;28;45430;-83
2023/01/31 06:05:02;;;;;;;;;8.67;7.00;;;;;7.33;100.00;102118.66;5030151;28;45865;-83
2023/01/31 06:07:28;;;;;;;;;14.67;12.67;;;;;7.30;100.00;102118.47;5031041;28;45402;-83
2023/01/31 06:09:53;;;;;;;;;12.33;12.33;;;;;7.24;100.00;102111.97;5030183;28;46961;-83
2023/01/31 06:12:19;;;;;;;;;12.33;11.00;;;;;7.30;100.00;102121.13;5047598;28;45434;-83
2023/01/31 06:14:45;;;;;;;;;8.00;8.00;;;;;7.27;100.00;102113.03;5047050;28;45429;-83
2023/01/31 06:20:40;;;;;;;;;7.00;7.00;;;;;7.45;100.00;102128.91;5045372;28;45527;-83
2023/01/31 06:23:05;;;;;;;;;9.33;8.00;;;;;7.44;100.00;102131.50;5028447;28;45471;-84
2023/01/31 06:25:30;;;;;;;;;8.00;8.00;;;;;7.41;100.00;102130.50;5029316;28;45739;-84
2023/01/31 06:27:56;;;;;;;;;10.33;8.33;;;;;7.39;100.00;102129.53;5045172;28;45479;-84
2023/01/31 06:30:22;;;;;;;;;11.67;11.00;;;;;7.37;100.00;102136.50;5042168;28;45762;-83
2023/01/31 06:32:47;;;;;;;;;11.67;10.00;;;;;7.49;100.00;102159.06;5027711;28;45328;-84
2023/01/31 06:35:12;;;;;;;;;7.00;7.00;;;;;7.45;100.00;102142.13;5026756;28;45839;-84
2023/01/31 06:37:38;;;;;;;;;6.33;6.00;;;;;7.51;100.00;102154.78;5027738;28;45602;-85
2023/01/31 06:40:04;;;;;;;;;11.33;11.33;;;;;7.48;100.00;102144.03;5045434;28;45387;-84
2023/01/31 06:42:29;;;;;;;;;11.33;10.33;;;;;7.52;100.00;102156.59;5029962;28;45461;-84
2023/01/31 06:44:55;;;;;;;;;12.50;10.50;;;;;7.53;100.00;102161.03;5047103;28;45442;-84
2023/01/31 06:47:20;;;;;;;;;9.00;8.67;;;;;7.54;100.00;102168.19;5048537;28;45391;-84
2023/01/31 06:49:45;;;;;;;;;10.67;10.00;;;;;7.56;100.00;102159.47;5029331;28;48418;-84
2023/01/31 06:52:11;;;;;;;;;9.00;7.33;;;;;7.49;100.00;102145.84;5027915;28;45514;-84
2023/01/31 06:54:36;;;;;;;;;11.67;8.67;;;;;7.57;100.00;102157.72;5048158;28;45363;-84
2023/01/31 06:57:03;;;;;;;;;11.33;9.00;;;;;7.63;100.00;102152.72;5033146;28;45476;-85
2023/01/31 06:59:30;;;;;;;;;11.00;8.00;;;;;7.51;100.00;102146.81;5022193;28;47339;-85
2023/01/31 07:01:55;;;;;;;;;9.33;7.00;;;;;7.53;100.00;102154.00;5029128;28;45742;-84
2023/01/31 07:04:21;;;;;;;;;11.67;9.33;;;;;7.53;100.00;102147.81;5028546;28;45459;-85
2023/01/31 07:06:46;;;;;;;;;8.00;8.00;;;;;7.54;100.00;102155.84;5029215;28;45419;-87
2023/01/31 07:09:13;;;;;;;;;13.00;8.00;;;;;7.65;100.00;102159.00;5029676;28;47601;-83
2023/01/31 07:11:38;;;;;;;;;10.00;7.33;;;;;7.58;100.00;102162.19;5022127;28;45416;-85
2023/01/31 07:14:04;;;;;;;;;10.00;5.00;;;;;7.58;100.00;102152.50;5027092;28;45396;-84
2023/01/31 07:16:30;;;;;;;;;9.67;9.67;;;;;7.54;100.00;102150.53;5026963;28;45446;-85
2023/01/31 07:19:18;;;;;;;;;12.33;7.67;;;;;7.77;100.00;102159.59;5048545;28;47149;-84
2023/01/31 07:21:46;;;;;;;;;7.33;7.33;;;;;7.64;100.00;102146.59;5009605;28;45356;-86
2023/01/31 07:24:11;;;;;;;;;10.00;7.33;;;;;7.65;100.00;102142.22;5008492;28;44719;-85
2023/01/31 07:26:36;;;;;;;;;7.00;6.00;;;;;7.67;100.00;102145.84;5024870;28;45402;-85
2023/01/31 07:29:02;;;;;;;;;5.67;5.67;;;;;7.67;100.00;102146.75;5007493;28;46801;-84
2023/01/31 07:31:33;;;;;;;;;10.67;7.33;;;;;7.79;100.00;102163.22;5010081;28;45478;-84
2023/01/31 07:34:01;;;;;;;;;9.67;8.67;;;;;7.69;100.00;102150.38;5026928;28;45566;-85
2023/01/31 07:36:26;;;;;;;;;13.33;6.33;;;;;7.69;100.00;102160.97;5009349;28;45407;-84
2023/01/31 07:38:54;;;;;;;;;11.00;9.67;;;;;7.69;100.00;102166.25;5007253;28;46475;-84
2023/01/31 07:41:20;;;;;;;;;10.00;8.00;;;;;7.61;100.00;102152.66;5010083;28;45423;-84
2023/01/31 07:43:45;;;;;;;;;12.33;9.33;;;;;7.54;100.00;102137.31;5027327;28;45704;-85
2023/01/31 07:46:12;;;;;;;;;7.00;7.00;;;;;7.63;100.00;102134.19;5011042;28;45500;-85
2023/01/31 07:48:38;;;;;;;;;8.00;6.00;;;;;7.71;100.00;102161.94;5028111;28;45683;-85
2023/01/31 07:51:05;;;;;;;;;6.00;6.00;;;;;7.76;100.00;102164.84;5043038;28;45383;-85
2023/01/31 07:53:33;;;;;;;;;6.33;6.00;;;;;7.84;100.00;102175.78;5043645;28;45406;-85
2023/01/31 07:56:17;;;;;;;;;10.00;7.00;;;;;7.88;100.00;102165.41;5031349;28;45426;-85
2023/01/31 07:58:44;;;;;;;;;8.33;8.33;;;;;7.86;100.00;102163.50;5017589;28;47071;-85
2023/01/31 08:04:10;;;;;;;;;9.00;9.00;;;;;7.98;100.00;102169.44;5028072;28;45428;-84
2023/01/31 08:06:38;;;;;;;;;8.00;8.00;;;;;8.04;100.00;102169.72;5008431;28;45679;-84
2023/01/31 08:09:05;;;;;;;;;10.33;7.67;;;;;8.03;100.00;102154.63;5009632;28;46965;-85
2023/01/31 08:11:30;;;;;;;;;5.67;5.67;;;;;8.05;100.00;102171.50;5008169;28;45527;-86
2023/01/31 08:13:56;;;;;;;;;13.67;8.00;;;;;8.10;100.00;102164.69;5027563;28;45383;-84
2023/01/31 08:16:21;;;;;;;;;10.33;9.33;;;;;8.19;100.00;102169.50;5011399;28;44961;-85
2023/01/31 08:18:48;;;;;;;;;5.33;1.33;;;;;8.28;100.00;102176.97;5030544;28;45342;-85
2023/01/31 08:21:14;;;;;;;;;9.00;7.00;;;;;8.27;100.00;102172.53;5032267;28;45438;-84
2023/01/31 08:23:40;;;;;;;;;10.00;7.00;;;;;8.35;100.00;102168.47;5048537;28;45277;-85
2023/01/31 08:26:21;;;;;;;;;12.00;11.00;;;;;8.48;100.00;102164.69;5012951;28;44766;-84
2023/01/31 08:28:52;;;;;;;;;10.00;10.00;;;;;8.51;100.00;102176.34;5047573;28;47251;-85
2023/01/31 08:31:44;;;;;;;;;5.33;5.33;;;;;8.59;100.00;102180.25;5024437;28;45378;-85
2023/01/31 08:34:11;;;;;;;;;7.33;6.67;;;;;8.56;100.00;102177.47;5044213;28;45374;-86
2023/01/31 08:36:37;;;;;;;;;8.00;8.00;;;;;8.56;100.00;102174.81;5020725;28;45351;-85
2023/01/31 08:39:02;;;;;;;;;13.67;12.00;;;;;8.61;100.00;102183.88;5031308;28;48421;-81
2023/01/31 08:41:31;;;;;;;;;13.00;12.67;;;;;8.72;100.00;102180.78;5033401;28;45575;-85
2023/01/31 08:44:07;;;;;;;;;;;;;;;;;;;;;
2023/01/31 08:46:34;;;;;;;;;4.67;4.67;;;;;8.60;100.00;102175.84;5040765;28;64169;-84
2023/01/31 08:49:05;;;;;;;;;11.00;8.67;;;;;8.61;100.00;102196.22;5051075;28;45377;-83
2023/01/31 08:51:35;;;;;;;;;11.00;8.33;;;;;8.63;100.00;102177.75;5025097;28;45886;-85
2023/01/31 08:57:29;;;;;;;;;10.00;8.33;;;;;8.98;100.00;102188.16;5027357;28;45400;-84
2023/01/31 08:59:54;;;;;;;;;11.67;11.00;;;;;8.92;100.00;102184.31;5012222;28;47317;-85
2023/01/31 09:02:20;;;;;;;;;8.00;6.33;;;;;9.04;100.00;102186.63;5012186;28;45500;-85
2023/01/31 09:04:45;;;;;;;;;9.67;8.00;;;;;9.05;100.00;102180.44;5021694;28;45858;-84
2023/01/31 09:07:11;;;;;;;;;9.67;8.00;;;;;9.14;100.00;102186.16;5032317;28;45553;-85
2023/01/31 09:09:36;;;;;;;;;8.33;8.33;;;;;9.14;100.00;102181.75;5048444;28;45460;-85
2023/01/31 09:12:03;;;;;;;;;7.00;5.67;;;;;9.26;100.00;102186.69;5027997;28;45487;-85
2023/01/31 09:14:30;;;;;;;;;7.00;6.00;;;;;9.24;100.00;102180.41;5012801;28;45841;-85
2023/01/31 09:16:56;;;;;;;;;7.33;7.33;;;;;9.31;100.00;102166.56;5019789;28;44926;-85
2023/01/31 09:22:44;;;;;;;;;7.33;6.33;;;;;9.47;100.00;102189.34;5060683;28;45097;-84
2023/01/31 09:25:10;;;;;;;;;7.67;7.67;;;;;9.53;100.00;102200.25;5035423;28;46834;-84
2023/01/31 09:27:37;;;;;;;;;7.00;6.33;;;;;9.53;100.00;102191.34;5033956;28;45689;-86
2023/01/31 09:30:10;;;;;;;;;13.33;11.33;;;;;9.54;100.00;102179.91;5034256;28;47029;-85
2023/01/31 09:35:53;;;;;;;;;;;;;;;;;;;;;
2023/01/31 09:38:31;;;;;;;;;13.00;10.67;;;;;9.67;100.00;102205.19;5025305;28;66123;-84
2023/01/31 09:41:14;;;;;;;;;9.00;9.00;;;;;9.70;100.00;102203.59;5016311;28;45632;-84
2023/01/31 09:44:30;;;;;;;;;9.67;9.67;;;;;9.54;100.00;102166.63;5030363;28;45462;-84
2023/01/31 09:50:54;;;;;;;;;13.67;13.67;;;;;9.80;100.00;102196.91;5044110;28;44975;-84
2023/01/31 09:53:42;;;;;;;;;11.33;9.00;;;;;9.71;100.00;102180.56;5010673;28;46150;-83
2023/01/31 10:00:39;;;;;;;;;;;;;;;;;;;;;
2023/01/31 10:03:40;;;;;;;;;17.33;16.33;;;;;10.01;100.00;102191.53;5029008;28;65011;-84
2023/01/31 10:07:00;;;;;;;;;;;;;;;;;;;;;
2023/01/31 10:09:57;;;;;;;;;12.67;9.67;;;;;10.18;100.00;102208.16;4930338;28;72997;-85
2023/01/31 10:12:56;;;;;;;;;11.33;9.00;;;;;10.27;100.00;102207.59;5013253;28;45547;-84
2023/01/31 10:15:46;;;;;;;;;10.33;9.00;;;;;10.25;100.00;102198.66;5013464;28;44925;-85
2023/01/31 10:18:46;;;;;;;;;;;;;;;;;;;;;
2023/01/31 10:21:24;;;;;;;;;16.00;13.67;;;;;10.41;100.00;102223.28;5028935;28;73313;-85
2023/01/31 10:24:03;;;;;;;;;10.33;10.33;;;;;10.49;100.00;102206.72;5011826;28;45456;-85
2023/01/31 10:26:44;;;;;;;;;14.00;11.67;;;;;10.38;100.00;102182.34;5011612;28;45411;-85
2023/01/31 10:29:57;;;;;;;;;8.33;8.33;;;;;10.61;100.00;102205.41;5029064;28;45400;-87
2023/01/31 10:32:40;;;;;;;;;9.00;8.00;;;;;10.75;100.00;102213.00;5012971;28;44843;-85
2023/01/31 10:35:23;;;;;;;;;10.33;9.00;;;;;10.71;100.00;102192.47;5011010;28;45585;-84
2023/01/31 10:37:54;;;;;;;;;10.00;8.00;;;;;10.62;100.00;102163.75;5012554;28;45331;-85
2023/01/31 10:40:34;;;;;;;;;14.67;12.67;;;;;10.90;100.00;102197.59;5015379;28;46838;-85
2023/01/31 10:46:20;;;;;;;;;14.00;13.00;;;;;10.82;100.00;102191.06;5030709;28;45496;-84
2023/01/31 10:48:53;;;;;;;;;14.33;13.33;;;;;10.84;100.00;102186.72;5012127;28;45629;-85
2023/01/31 10:51:28;;;;;;;;;17.33;17.33;;;;;10.84;100.00;102197.38;4995654;28;45334;-83
2023/01/31 10:54:15;;;;;;;;;18.33;15.33;;;;;10.92;100.00;102201.19;5012090;28;44867;-86
2023/01/31 10:57:24;;;;;;;;;;;;;;;;;;;;;
2023/01/31 10:59:59;;;;;;;;;43.00;37.67;;;;;10.75;100.00;102159.78;5027822;28;65125;-84
2023/01/31 11:03:19;;;;;;;;;24.33;22.00;;;;;11.01;100.00;102185.56;4990746;28;45674;-85
2023/01/31 11:06:18;;;;;;;;;15.67;15.67;;;;;11.03;100.00;102182.97;5016064;28;45339;-83
2023/01/31 11:12:12;;;;;;;;;10.00;10.00;;;;;11.00;100.00;102178.41;5021844;23;46145;-85
2023/01/31 11:14:54;;;;;;;;;;;;;;;;;;;;;
2023/01/31 11:18:27;;;;;;;;;;;;;;;;;;;;;
2023/01/31 11:20:53;;;;;;;;;13.33;11.33;;;;;10.92;100.00;102102.72;5008157;28;44958;-84
2023/01/31 11:24:03;;;;;;;;;;;;;;;;;;;;;
2023/01/31 11:29:52;;;;;;;;;7.67;6.67;;;;;11.25;100.00;102115.38;4908549;29;45461;-84
2023/01/31 11:32:38;;;;;;;;;6.33;6.33;;;;;11.65;100.00;102145.97;4915053;28;45944;-86
2023/01/31 11:41:40;;;;;;;;;8.33;8.33;;;;;11.82;100.00;102130.53;5009759;28;44774;-85
2023/01/31 11:44:28;;;;;;;;;12.67;9.00;;;;;11.71;100.00;102099.97;4997173;28;45420;-86
2023/01/31 11:47:11;;;;;;;;;7.33;7.33;;;;;12.02;100.00;102131.19;4996212;28;45631;-85
2023/01/31 11:50:08;;;;;;;;;9.00;8.00;;;;;12.06;100.00;102097.50;4993921;28;48142;-85
2023/01/31 11:53:08;;;;;;;;;10.33;9.33;;;;;12.42;100.00;102119.00;5013289;28;45213;-85
2023/01/31 11:55:55;;;;;;;;;9.00;9.00;;;;;12.43;100.00;102114.59;5312258;23;44876;-85
2023/01/31 11:58:55;;;;;;;;;10.00;9.00;;;;;12.18;100.00;102074.78;5019964;28;45409;-85
2023/01/31 12:01:25;;;;;;;;;11.67;10.33;;;;;12.28;100.00;102099.97;4953651;28;47308;-84
2023/01/31 12:04:02;;;;;;;;;6.67;6.67;;;;;12.32;100.00;102115.19;4936060;28;45318;-84
2023/01/31 12:06:31;;;;;;;;;8.00;8.00;;;;;12.24;100.00;102113.13;4949062;28;45505;-86
2023/01/31 12:08:59;;;;;;;;;12.33;8.67;;;;;11.98;100.00;102092.84;4952870;28;45322;-86
2023/01/31 12:11:50;;;;;;;;;16.00;12.33;;;;;12.12;100.00;102117.28;4954568;28;46863;-87
2023/01/31 12:14:47;;;;;;;;;11.00;8.00;;;;;11.90;100.00;102080.16;4934032;28;45922;-87
2023/01/31 12:17:35;;;;;;;;;11.00;9.00;;;;;11.89;100.00;102068.56;4934202;28;45439;-85
2023/01/31 12:20:41;;;;;;;;;10.67;9.00;;;;;12.05;100.00;102117.94;4917369;28;45412;-84
2023/01/31 12:23:41;;;;;;;;;9.33;8.33;;;;;11.70;100.00;102051.09;4929293;28;46835;-85
2023/01/31 12:26:29;;;;;;;;;10.00;8.67;;;;;11.89;100.00;102071.25;4905980;28;44888;-88
2023/01/31 12:29:53;;;;;;;;;7.67;7.00;;;;;12.02;100.00;102069.88;4920716;28;44831;-86
2023/01/31 12:32:55;;;;;;;;;4.33;4.33;;;;;12.32;100.00;102082.25;4909649;29;44929;-85
2023/01/31 12:35:43;;;;;;;;;10.67;9.33;;;;;12.41;100.00;102071.84;4910372;29;45749;-85
2023/01/31 12:38:22;;;;;;;;;9.00;7.33;;;;;12.39;100.00;102054.91;4952041;28;45754;-85
2023/01/31 12:41:16;;;;;;;;;7.33;6.33;;;;;12.48;100.00;102059.56;4981564;28;45451;-84
2023/01/31 12:44:03;;;;;;;;;7.67;6.33;;;;;12.48;100.00;102055.16;4982547;28;45416;-84
2023/01/31 12:46:31;;;;;;;;;6.00;5.00;;;;;12.49;100.00;102056.97;4968142;28;48179;-85